KMUI

Muir AAF (Fort Indiantown Gap) Airport

Fort Indiantown Gap(Annville), Pennsylvania, USA
TAF AMD KMUI 181951Z 1819/2001 VRB06KT 6000 BR OVC050 620502 QNH3004INS BECMG 1820/1821 VRB06KT 8000 BR BKN010 QNH3005INS BECMG 1902/1903 VRB06KT 9999 NSW SCT015 QNH3011INS BECMG 1911/1912 06006KT 9999 SCT020 BKN180 QNH3006INS BECMG 1918/1919 10009KT 9999 OVC015 620159 QNH2997INS BECMG 1920/1921 08009KT 1600 -SN BR OVC006 620069 QNH2992INS TX02/1820Z TNM02/1908Z LAST NO AMDS AFT 1821 NEXT 2211
Issued Valid From Valid To
Jan-18 @ 19:51 UTC
(7 hours ago)
Jan-18 @ 19:00 UTC
(7 hours ago)
Jan-20 @ 01:00 UTC
(in 23 hours)
Expired Click to View Jan-18 @ 19:00 to Jan-18 @ 20:00
TAF AMD KMUI 181951Z 1819/2001 VRB06KT 6000 BR OVC050 620502 QNH3004INS
Wind Visibility Clouds Conditions Readings Icing
Variable at 6 knots 373 miles
  • Overcast at 5,000' AGL
  • Mist
Altimeter 30.03" Hg
Pressure 1016.92 hPa
Light icing in cloud expected at 5,000' AGL extending to 7,000' AGL
Expired Click to View Jan-18 @ 20:00 to Jan-19 @ 02:00
BECMG 1820/1821 VRB06KT 8000 BR BKN010 QNH3005INS
Wind Visibility Clouds Conditions Readings
Variable at 6 knots 497 miles
  • Broken at 1,000' AGL
  • Mist
Altimeter 30.06" Hg
Pressure 1017.92 hPa
Becoming Jan-19 @ 02:00 to Jan-19 @ 11:00
BECMG 1902/1903 VRB06KT 9999 NSW SCT015 QNH3011INS
Wind Visibility Clouds Conditions Readings
Variable at 6 knots Greater than 6 miles
  • Scattered at 1,500' AGL
Altimeter 30.12" Hg
Pressure 1019.92 hPa
Becoming Jan-19 @ 11:00 to Jan-19 @ 18:00
BECMG 1911/1912 06006KT 9999 SCT020 BKN180 QNH3006INS
Wind Visibility Clouds Conditions Readings
60° at 6 knots Greater than 6 miles
  • Scattered at 2,000' AGL
  • Broken at 18,000' AGL
Altimeter 30.06" Hg
Pressure 1017.92 hPa
Becoming Jan-19 @ 18:00 to Jan-19 @ 20:00
BECMG 1918/1919 10009KT 9999 OVC015 620159 QNH2997INS
Wind Visibility Clouds Conditions Readings Icing
100° at 9 knots Greater than 6 miles
  • Overcast at 1,500' AGL
Altimeter 29.97" Hg
Pressure 1014.92 hPa
Light icing in cloud expected at 1,500' AGL extending to 10,500' AGL
Becoming Jan-19 @ 20:00 to Jan-20 @ 01:00
BECMG 1920/1921 08009KT 1600 -SN BR OVC006 620069 QNH2992INS TX02/1820Z TNM02/1908Z LAST NO AMDS AFT 1821 NEXT 2211
Wind Visibility Clouds Conditions Readings Icing
80° at 9 knots 99 miles
  • Overcast at 600' AGL
  • Light Snow
  • Mist
Altimeter 29.91" Hg
Pressure 1012.92 hPa
Light icing in cloud expected at 600' AGL extending to 9,600' AGL
TAF AMD KMUI 181951Z 1819/2001 VRB06KT 6000 BR OVC050 620502 QNH3004INS BECMG 1820/1821 VRB06KT 8000 BR BKN010 QNH3005INS BECMG 1902/1903 VRB06KT 9999 NSW SCT015 QNH3011INS BECMG 1911/1912 06006KT 9999 SCT020 BKN180 QNH3006INS BECMG 1918/1919 10009KT 9999 OVC015 620159 QNH2997INS BECMG 1920/1921 08009KT 1600 -SN BR OVC006 620069 QNH2992INS TX02/1820Z TNM02/1908Z LAST NO AMDS AFT 1821 NEXT 2211
Issued Jan-18 @ 19:51 UTC
(7 hours ago)
Valid From Jan-18 @ 19:00 UTC
(7 hours ago)
Valid To Jan-20 @ 01:00 UTC
(in 23 hours)
Jan-18 @ 19:00 - Jan-18 @ 20:00
Wind Visibility
Variable at 6 knots 373 miles
Clouds
  • Overcast at 5,000' AGL
Conditions
  • Mist
Jan-18 @ 20:00 - Jan-19 @ 02:00
Wind Visibility
Variable at 6 knots 497 miles
Clouds
  • Broken at 1,000' AGL
Conditions
  • Mist
Becoming Jan-19 @ 02:00 - Jan-19 @ 11:00
Wind Visibility
Variable at 6 knots Greater than 6 miles
Clouds
  • Scattered at 1,500' AGL
Conditions
Becoming Jan-19 @ 11:00 - Jan-19 @ 18:00
Wind Visibility
60° at 6 knots Greater than 6 miles
Clouds
  • Scattered at 2,000' AGL
  • Broken at 18,000' AGL
Conditions
Becoming Jan-19 @ 18:00 - Jan-19 @ 20:00
Wind Visibility
100° at 9 knots Greater than 6 miles
Clouds
  • Overcast at 1,500' AGL
Conditions
Becoming Jan-19 @ 20:00 - Jan-20 @ 01:00
Wind Visibility
80° at 9 knots 99 miles
Clouds
  • Overcast at 600' AGL
Conditions
  • Light Snow
  • Mist